sensor_id;sensor_type;location;lat;lon;timestamp;P1;durP1;ratioP1;P2;durP2;ratioP2
26319;SDS011;14024;52.226;5.200;2023-06-19T00:00:07;13.00;;;10.25;;
26319;SDS011;14024;52.226;5.200;2023-06-19T00:02:42;14.65;;;10.75;;
26319;SDS011;14024;52.226;5.200;2023-06-19T00:05:09;18.33;;;11.13;;
26319;SDS011;14024;52.226;5.200;2023-06-19T00:07:36;12.88;;;10.38;;
26319;SDS011;14024;52.226;5.200;2023-06-19T00:10:02;13.77;;;10.40;;
26319;SDS011;14024;52.226;5.200;2023-06-19T00:12:28;15.43;;;11.18;;
26319;SDS011;14024;52.226;5.200;2023-06-19T00:14:54;11.68;;;10.07;;
26319;SDS011;14024;52.226;5.200;2023-06-19T00:17:20;14.70;;;10.82;;
26319;SDS011;14024;52.226;5.200;2023-06-19T00:19:46;13.55;;;11.05;;
26319;SDS011;14024;52.226;5.200;2023-06-19T00:22:13;13.63;;;10.60;;
26319;SDS011;14024;52.226;5.200;2023-06-19T00:24:40;15.07;;;11.65;;
26319;SDS011;14024;52.226;5.200;2023-06-19T00:27:06;14.15;;;10.98;;
26319;SDS011;14024;52.226;5.200;2023-06-19T00:29:32;15.75;;;11.20;;
26319;SDS011;14024;52.226;5.200;2023-06-19T00:31:59;18.00;;;11.50;;
26319;SDS011;14024;52.226;5.200;2023-06-19T00:34:25;15.02;;;11.52;;
26319;SDS011;14024;52.226;5.200;2023-06-19T00:36:52;16.48;;;10.82;;
26319;SDS011;14024;52.226;5.200;2023-06-19T00:39:38;14.90;;;11.05;;
26319;SDS011;14024;52.226;5.200;2023-06-19T00:42:05;16.83;;;10.73;;
26319;SDS011;14024;52.226;5.200;2023-06-19T00:44:31;13.10;;;10.30;;
26319;SDS011;14024;52.226;5.200;2023-06-19T00:46:58;14.43;;;10.13;;
26319;SDS011;14024;52.226;5.200;2023-06-19T00:49:25;14.15;;;10.57;;
26319;SDS011;14024;52.226;5.200;2023-06-19T00:51:51;13.63;;;9.55;;
26319;SDS011;14024;52.226;5.200;2023-06-19T00:54:18;17.90;;;8.93;;
26319;SDS011;14024;52.226;5.200;2023-06-19T00:56:44;10.98;;;8.32;;
26319;SDS011;14024;52.226;5.200;2023-06-19T00:59:28;10.98;;;7.90;;
26319;SDS011;14024;52.226;5.200;2023-06-19T01:01:55;11.85;;;7.57;;
26319;SDS011;14024;52.226;5.200;2023-06-19T01:04:21;10.20;;;7.75;;
26319;SDS011;14024;52.226;5.200;2023-06-19T01:06:55;15.18;;;8.07;;
26319;SDS011;14024;52.226;5.200;2023-06-19T01:09:25;17.92;;;7.53;;
26319;SDS011;14024;52.226;5.200;2023-06-19T01:11:53;12.18;;;8.65;;
26319;SDS011;14024;52.226;5.200;2023-06-19T01:14:36;22.85;;;8.45;;
26319;SDS011;14024;52.226;5.200;2023-06-19T01:17:03;12.33;;;7.97;;
26319;SDS011;14024;52.226;5.200;2023-06-19T01:19:30;14.90;;;7.75;;
26319;SDS011;14024;52.226;5.200;2023-06-19T01:21:56;14.13;;;7.70;;
26319;SDS011;14024;52.226;5.200;2023-06-19T01:24:22;11.88;;;7.60;;
26319;SDS011;14024;52.226;5.200;2023-06-19T01:26:48;9.05;;;6.80;;
26319;SDS011;14024;52.226;5.200;2023-06-19T01:29:14;13.13;;;6.60;;
26319;SDS011;14024;52.226;5.200;2023-06-19T01:34:13;8.68;;;5.53;;
26319;SDS011;14024;52.226;5.200;2023-06-19T01:36:40;7.82;;;4.70;;
26319;SDS011;14024;52.226;5.200;2023-06-19T01:39:07;6.47;;;5.07;;
26319;SDS011;14024;52.226;5.200;2023-06-19T01:41:34;6.47;;;4.63;;
26319;SDS011;14024;52.226;5.200;2023-06-19T01:44:01;4.97;;;4.18;;
26319;SDS011;14024;52.226;5.200;2023-06-19T01:46:27;5.55;;;4.38;;
26319;SDS011;14024;52.226;5.200;2023-06-19T01:48:53;5.78;;;4.25;;
26319;SDS011;14024;52.226;5.200;2023-06-19T01:51:19;9.70;;;4.50;;
26319;SDS011;14024;52.226;5.200;2023-06-19T01:53:45;6.63;;;4.50;;
26319;SDS011;14024;52.226;5.200;2023-06-19T01:56:11;8.23;;;4.30;;
26319;SDS011;14024;52.226;5.200;2023-06-19T01:58:37;5.30;;;3.58;;
26319;SDS011;14024;52.226;5.200;2023-06-19T02:01:03;7.57;;;4.13;;
26319;SDS011;14024;52.226;5.200;2023-06-19T02:03:29;6.82;;;4.13;;
26319;SDS011;14024;52.226;5.200;2023-06-19T02:05:55;5.78;;;4.03;;
26319;SDS011;14024;52.226;5.200;2023-06-19T02:08:21;7.50;;;4.13;;
26319;SDS011;14024;52.226;5.200;2023-06-19T02:10:47;10.95;;;4.03;;
26319;SDS011;14024;52.226;5.200;2023-06-19T02:13:13;9.63;;;4.47;;
26319;SDS011;14024;52.226;5.200;2023-06-19T02:15:39;8.18;;;4.70;;
26319;SDS011;14024;52.226;5.200;2023-06-19T02:18:05;8.20;;;4.60;;
26319;SDS011;14024;52.226;5.200;2023-06-19T02:20:31;7.35;;;4.60;;
26319;SDS011;14024;52.226;5.200;2023-06-19T02:22:57;10.98;;;4.93;;
26319;SDS011;14024;52.226;5.200;2023-06-19T02:25:23;8.10;;;4.80;;
26319;SDS011;14024;52.226;5.200;2023-06-19T02:27:49;9.20;;;5.05;;
26319;SDS011;14024;52.226;5.200;2023-06-19T02:30:15;7.85;;;5.20;;
26319;SDS011;14024;52.226;5.200;2023-06-19T02:32:41;6.65;;;5.43;;
26319;SDS011;14024;52.226;5.200;2023-06-19T02:35:09;7.18;;;5.05;;
26319;SDS011;14024;52.226;5.200;2023-06-19T02:37:35;8.75;;;5.68;;
26319;SDS011;14024;52.226;5.200;2023-06-19T02:40:04;8.63;;;5.28;;
26319;SDS011;14024;52.226;5.200;2023-06-19T02:42:31;8.40;;;5.68;;
26319;SDS011;14024;52.226;5.200;2023-06-19T02:44:57;9.27;;;6.03;;
26319;SDS011;14024;52.226;5.200;2023-06-19T02:47:28;8.52;;;6.03;;
26319;SDS011;14024;52.226;5.200;2023-06-19T02:49:54;10.82;;;5.85;;
26319;SDS011;14024;52.226;5.200;2023-06-19T02:52:20;9.25;;;6.18;;
26319;SDS011;14024;52.226;5.200;2023-06-19T02:54:46;10.35;;;6.00;;
26319;SDS011;14024;52.226;5.200;2023-06-19T02:57:12;11.25;;;6.53;;
26319;SDS011;14024;52.226;5.200;2023-06-19T02:59:38;9.25;;;6.07;;
26319;SDS011;14024;52.226;5.200;2023-06-19T03:02:04;9.25;;;6.10;;
26319;SDS011;14024;52.226;5.200;2023-06-19T03:04:30;10.05;;;5.75;;
26319;SDS011;14024;52.226;5.200;2023-06-19T03:06:56;8.13;;;6.22;;
26319;SDS011;14024;52.226;5.200;2023-06-19T03:09:22;9.88;;;7.40;;
26319;SDS011;14024;52.226;5.200;2023-06-19T03:11:48;12.25;;;7.07;;
26319;SDS011;14024;52.226;5.200;2023-06-19T03:14:14;9.85;;;6.72;;
26319;SDS011;14024;52.226;5.200;2023-06-19T03:16:40;11.20;;;7.95;;
26319;SDS011;14024;52.226;5.200;2023-06-19T03:19:06;10.45;;;8.20;;
26319;SDS011;14024;52.226;5.200;2023-06-19T03:21:32;14.55;;;9.18;;
26319;SDS011;14024;52.226;5.200;2023-06-19T03:24:00;12.55;;;8.18;;
26319;SDS011;14024;52.226;5.200;2023-06-19T03:26:26;11.38;;;8.48;;
26319;SDS011;14024;52.226;5.200;2023-06-19T03:28:52;12.73;;;9.30;;
26319;SDS011;14024;52.226;5.200;2023-06-19T03:31:18;12.82;;;9.75;;
26319;SDS011;14024;52.226;5.200;2023-06-19T03:33:44;16.63;;;10.73;;
26319;SDS011;14024;52.226;5.200;2023-06-19T03:36:10;16.73;;;11.90;;
26319;SDS011;14024;52.226;5.200;2023-06-19T03:38:36;29.17;;;12.15;;
26319;SDS011;14024;52.226;5.200;2023-06-19T03:41:02;16.10;;;11.45;;
26319;SDS011;14024;52.226;5.200;2023-06-19T03:43:28;14.60;;;10.07;;
26319;SDS011;14024;52.226;5.200;2023-06-19T03:45:54;15.23;;;10.55;;
26319;SDS011;14024;52.226;5.200;2023-06-19T03:48:20;16.40;;;11.32;;
26319;SDS011;14024;52.226;5.200;2023-06-19T03:50:46;14.55;;;10.60;;
26319;SDS011;14024;52.226;5.200;2023-06-19T03:53:12;16.52;;;10.63;;
26319;SDS011;14024;52.226;5.200;2023-06-19T03:55:38;19.45;;;11.93;;
26319;SDS011;14024;52.226;5.200;2023-06-19T03:58:04;17.83;;;11.88;;
26319;SDS011;14024;52.226;5.200;2023-06-19T04:00:31;15.63;;;11.40;;
26319;SDS011;14024;52.226;5.200;2023-06-19T04:02:57;20.90;;;12.07;;
26319;SDS011;14024;52.226;5.200;2023-06-19T04:05:23;20.42;;;13.25;;
26319;SDS011;14024;52.226;5.200;2023-06-19T04:07:52;22.08;;;13.23;;
26319;SDS011;14024;52.226;5.200;2023-06-19T04:10:18;20.30;;;14.05;;
26319;SDS011;14024;52.226;5.200;2023-06-19T04:12:44;22.42;;;14.80;;
26319;SDS011;14024;52.226;5.200;2023-06-19T04:15:11;21.27;;;14.43;;
26319;SDS011;14024;52.226;5.200;2023-06-19T04:17:37;21.55;;;14.52;;
26319;SDS011;14024;52.226;5.200;2023-06-19T04:20:03;25.67;;;15.23;;
26319;SDS011;14024;52.226;5.200;2023-06-19T04:22:36;25.30;;;15.70;;
26319;SDS011;14024;52.226;5.200;2023-06-19T04:25:02;26.30;;;17.25;;
26319;SDS011;14024;52.226;5.200;2023-06-19T04:27:28;24.75;;;15.35;;
26319;SDS011;14024;52.226;5.200;2023-06-19T04:29:54;26.85;;;16.30;;
26319;SDS011;14024;52.226;5.200;2023-06-19T04:32:20;23.38;;;14.18;;
26319;SDS011;14024;52.226;5.200;2023-06-19T04:34:46;22.30;;;14.95;;
26319;SDS011;14024;52.226;5.200;2023-06-19T04:37:12;20.33;;;14.35;;
26319;SDS011;14024;52.226;5.200;2023-06-19T04:39:38;18.75;;;12.88;;
26319;SDS011;14024;52.226;5.200;2023-06-19T04:42:04;18.35;;;12.60;;
26319;SDS011;14024;52.226;5.200;2023-06-19T04:44:30;19.85;;;10.98;;
26319;SDS011;14024;52.226;5.200;2023-06-19T04:46:58;19.33;;;12.52;;
26319;SDS011;14024;52.226;5.200;2023-06-19T04:49:27;22.33;;;11.15;;
26319;SDS011;14024;52.226;5.200;2023-06-19T04:51:54;22.95;;;11.25;;
26319;SDS011;14024;52.226;5.200;2023-06-19T04:54:20;17.52;;;11.10;;
26319;SDS011;14024;52.226;5.200;2023-06-19T04:56:46;17.48;;;10.48;;
26319;SDS011;14024;52.226;5.200;2023-06-19T04:59:13;19.40;;;11.15;;
26319;SDS011;14024;52.226;5.200;2023-06-19T05:01:43;18.92;;;10.98;;
26319;SDS011;14024;52.226;5.200;2023-06-19T05:04:09;17.10;;;10.85;;
26319;SDS011;14024;52.226;5.200;2023-06-19T05:06:36;15.20;;;9.68;;
26319;SDS011;14024;52.226;5.200;2023-06-19T05:09:02;12.88;;;9.15;;
26319;SDS011;14024;52.226;5.200;2023-06-19T05:11:29;15.50;;;9.32;;
26319;SDS011;14024;52.226;5.200;2023-06-19T05:13:55;11.38;;;7.78;;
26319;SDS011;14024;52.226;5.200;2023-06-19T05:16:21;11.98;;;8.43;;
26319;SDS011;14024;52.226;5.200;2023-06-19T05:18:48;13.38;;;8.25;;
26319;SDS011;14024;52.226;5.200;2023-06-19T05:21:14;15.95;;;9.70;;
26319;SDS011;14024;52.226;5.200;2023-06-19T05:23:40;14.18;;;10.77;;
26319;SDS011;14024;52.226;5.200;2023-06-19T05:26:06;17.00;;;12.10;;
26319;SDS011;14024;52.226;5.200;2023-06-19T05:28:32;22.92;;;14.73;;
26319;SDS011;14024;52.226;5.200;2023-06-19T05:30:58;23.65;;;15.90;;
26319;SDS011;14024;52.226;5.200;2023-06-19T05:33:24;23.30;;;16.13;;
26319;SDS011;14024;52.226;5.200;2023-06-19T05:35:52;19.58;;;14.35;;
26319;SDS011;14024;52.226;5.200;2023-06-19T05:38:19;20.27;;;13.85;;
26319;SDS011;14024;52.226;5.200;2023-06-19T05:40:45;19.98;;;13.43;;
26319;SDS011;14024;52.226;5.200;2023-06-19T05:43:11;18.52;;;13.98;;
26319;SDS011;14024;52.226;5.200;2023-06-19T05:45:37;16.88;;;13.52;;
26319;SDS011;14024;52.226;5.200;2023-06-19T05:48:03;16.98;;;12.45;;
26319;SDS011;14024;52.226;5.200;2023-06-19T05:50:29;13.68;;;11.07;;
26319;SDS011;14024;52.226;5.200;2023-06-19T05:52:56;15.10;;;10.30;;
26319;SDS011;14024;52.226;5.200;2023-06-19T05:55:22;14.45;;;11.07;;
26319;SDS011;14024;52.226;5.200;2023-06-19T05:57:50;15.05;;;11.20;;
26319;SDS011;14024;52.226;5.200;2023-06-19T06:00:16;15.35;;;10.45;;
26319;SDS011;14024;52.226;5.200;2023-06-19T06:02:42;15.88;;;11.57;;
26319;SDS011;14024;52.226;5.200;2023-06-19T06:05:09;16.98;;;11.27;;
26319;SDS011;14024;52.226;5.200;2023-06-19T06:07:35;17.95;;;10.77;;
26319;SDS011;14024;52.226;5.200;2023-06-19T06:10:01;15.98;;;9.90;;
26319;SDS011;14024;52.226;5.200;2023-06-19T06:12:27;13.25;;;9.73;;
26319;SDS011;14024;52.226;5.200;2023-06-19T06:14:53;13.60;;;9.85;;
26319;SDS011;14024;52.226;5.200;2023-06-19T06:17:19;12.95;;;9.40;;
26319;SDS011;14024;52.226;5.200;2023-06-19T06:19:45;15.60;;;10.10;;
26319;SDS011;14024;52.226;5.200;2023-06-19T06:22:11;15.27;;;10.00;;
26319;SDS011;14024;52.226;5.200;2023-06-19T06:24:37;16.38;;;10.40;;
26319;SDS011;14024;52.226;5.200;2023-06-19T06:27:03;14.45;;;10.02;;
26319;SDS011;14024;52.226;5.200;2023-06-19T06:29:30;14.82;;;10.25;;
26319;SDS011;14024;52.226;5.200;2023-06-19T06:32:05;14.52;;;10.38;;
26319;SDS011;14024;52.226;5.200;2023-06-19T06:34:32;18.08;;;10.35;;
26319;SDS011;14024;52.226;5.200;2023-06-19T06:36:59;14.10;;;10.13;;
26319;SDS011;14024;52.226;5.200;2023-06-19T06:39:25;15.27;;;11.15;;
26319;SDS011;14024;52.226;5.200;2023-06-19T06:41:51;20.23;;;11.85;;
26319;SDS011;14024;52.226;5.200;2023-06-19T06:44:17;18.52;;;11.45;;
26319;SDS011;14024;52.226;5.200;2023-06-19T06:46:43;21.95;;;11.35;;
26319;SDS011;14024;52.226;5.200;2023-06-19T06:49:09;15.75;;;10.73;;
26319;SDS011;14024;52.226;5.200;2023-06-19T06:51:35;16.33;;;11.50;;
26319;SDS011;14024;52.226;5.200;2023-06-19T06:54:01;24.98;;;13.20;;
26319;SDS011;14024;52.226;5.200;2023-06-19T06:56:27;21.67;;;14.70;;
26319;SDS011;14024;52.226;5.200;2023-06-19T06:58:53;24.38;;;14.45;;
26319;SDS011;14024;52.226;5.200;2023-06-19T07:01:19;19.50;;;12.85;;
26319;SDS011;14024;52.226;5.200;2023-06-19T07:03:45;17.85;;;11.88;;
26319;SDS011;14024;52.226;5.200;2023-06-19T07:06:11;20.05;;;12.02;;
26319;SDS011;14024;52.226;5.200;2023-06-19T07:08:37;20.10;;;13.85;;
26319;SDS011;14024;52.226;5.200;2023-06-19T07:11:05;28.40;;;14.45;;
26319;SDS011;14024;52.226;5.200;2023-06-19T07:13:31;23.90;;;14.70;;
26319;SDS011;14024;52.226;5.200;2023-06-19T07:15:57;27.63;;;14.27;;
26319;SDS011;14024;52.226;5.200;2023-06-19T07:18:25;21.95;;;13.80;;
26319;SDS011;14024;52.226;5.200;2023-06-19T07:20:51;20.65;;;12.63;;
26319;SDS011;14024;52.226;5.200;2023-06-19T07:23:17;24.95;;;13.52;;
26319;SDS011;14024;52.226;5.200;2023-06-19T07:25:43;18.52;;;12.40;;
26319;SDS011;14024;52.226;5.200;2023-06-19T07:28:10;19.50;;;11.75;;
26319;SDS011;14024;52.226;5.200;2023-06-19T07:30:36;26.58;;;12.13;;
26319;SDS011;14024;52.226;5.200;2023-06-19T07:33:02;18.98;;;12.40;;
26319;SDS011;14024;52.226;5.200;2023-06-19T07:35:28;21.30;;;12.25;;
26319;SDS011;14024;52.226;5.200;2023-06-19T07:37:54;18.80;;;11.93;;
26319;SDS011;14024;52.226;5.200;2023-06-19T07:40:20;15.93;;;11.18;;
26319;SDS011;14024;52.226;5.200;2023-06-19T07:42:47;16.92;;;11.70;;
26319;SDS011;14024;52.226;5.200;2023-06-19T07:45:13;19.83;;;12.00;;
26319;SDS011;14024;52.226;5.200;2023-06-19T07:47:39;21.98;;;12.63;;
26319;SDS011;14024;52.226;5.200;2023-06-19T07:50:06;23.88;;;12.10;;
26319;SDS011;14024;52.226;5.200;2023-06-19T07:52:32;20.23;;;12.82;;
26319;SDS011;14024;52.226;5.200;2023-06-19T07:54:58;21.38;;;11.38;;
26319;SDS011;14024;52.226;5.200;2023-06-19T07:57:25;19.33;;;12.80;;
26319;SDS011;14024;52.226;5.200;2023-06-19T07:59:52;20.05;;;12.27;;
26319;SDS011;14024;52.226;5.200;2023-06-19T08:02:18;22.95;;;12.52;;
26319;SDS011;14024;52.226;5.200;2023-06-19T08:04:45;19.00;;;12.57;;
26319;SDS011;14024;52.226;5.200;2023-06-19T08:07:11;18.70;;;12.57;;
26319;SDS011;14024;52.226;5.200;2023-06-19T08:09:37;23.80;;;13.90;;
26319;SDS011;14024;52.226;5.200;2023-06-19T08:12:06;19.35;;;12.98;;
26319;SDS011;14024;52.226;5.200;2023-06-19T08:14:33;18.73;;;13.40;;
26319;SDS011;14024;52.226;5.200;2023-06-19T08:17:00;18.10;;;12.75;;
26319;SDS011;14024;52.226;5.200;2023-06-19T08:19:26;21.77;;;13.60;;
26319;SDS011;14024;52.226;5.200;2023-06-19T08:21:52;26.52;;;14.18;;
26319;SDS011;14024;52.226;5.200;2023-06-19T08:24:18;26.05;;;14.25;;
26319;SDS011;14024;52.226;5.200;2023-06-19T08:26:44;21.17;;;14.32;;
26319;SDS011;14024;52.226;5.200;2023-06-19T08:29:10;26.20;;;14.00;;
26319;SDS011;14024;52.226;5.200;2023-06-19T08:31:36;22.58;;;12.85;;
26319;SDS011;14024;52.226;5.200;2023-06-19T08:34:02;23.10;;;13.70;;
26319;SDS011;14024;52.226;5.200;2023-06-19T08:36:33;23.63;;;13.63;;
26319;SDS011;14024;52.226;5.200;2023-06-19T08:38:59;20.13;;;12.18;;
26319;SDS011;14024;52.226;5.200;2023-06-19T08:41:25;22.00;;;12.48;;
26319;SDS011;14024;52.226;5.200;2023-06-19T08:43:51;20.58;;;12.77;;
26319;SDS011;14024;52.226;5.200;2023-06-19T08:46:17;26.42;;;13.80;;
26319;SDS011;14024;52.226;5.200;2023-06-19T08:48:44;21.35;;;12.75;;
26319;SDS011;14024;52.226;5.200;2023-06-19T08:51:10;20.65;;;12.15;;
26319;SDS011;14024;52.226;5.200;2023-06-19T08:53:44;18.77;;;13.23;;
26319;SDS011;14024;52.226;5.200;2023-06-19T08:56:10;19.15;;;11.55;;
26319;SDS011;14024;52.226;5.200;2023-06-19T08:58:36;21.30;;;13.23;;
26319;SDS011;14024;52.226;5.200;2023-06-19T09:01:03;22.38;;;13.70;;
26319;SDS011;14024;52.226;5.200;2023-06-19T09:03:29;22.90;;;12.38;;
26319;SDS011;14024;52.226;5.200;2023-06-19T09:05:55;22.48;;;14.93;;
26319;SDS011;14024;52.226;5.200;2023-06-19T09:08:21;22.95;;;15.13;;
26319;SDS011;14024;52.226;5.200;2023-06-19T09:11:03;26.88;;;18.83;;
26319;SDS011;14024;52.226;5.200;2023-06-19T09:13:31;28.00;;;17.35;;
26319;SDS011;14024;52.226;5.200;2023-06-19T09:16:02;29.13;;;17.55;;
26319;SDS011;14024;52.226;5.200;2023-06-19T09:18:29;28.35;;;15.90;;
26319;SDS011;14024;52.226;5.200;2023-06-19T09:20:56;30.88;;;18.40;;
26319;SDS011;14024;52.226;5.200;2023-06-19T09:23:22;34.10;;;19.58;;
26319;SDS011;14024;52.226;5.200;2023-06-19T09:25:51;30.08;;;18.45;;
26319;SDS011;14024;52.226;5.200;2023-06-19T09:28:17;29.50;;;19.25;;
26319;SDS011;14024;52.226;5.200;2023-06-19T09:33:19;37.53;;;21.70;;
26319;SDS011;14024;52.226;5.200;2023-06-19T09:35:45;33.17;;;22.30;;
26319;SDS011;14024;52.226;5.200;2023-06-19T09:38:11;30.25;;;21.88;;
26319;SDS011;14024;52.226;5.200;2023-06-19T09:40:38;36.00;;;21.55;;
26319;SDS011;14024;52.226;5.200;2023-06-19T09:43:04;34.55;;;23.73;;
26319;SDS011;14024;52.226;5.200;2023-06-19T09:45:32;34.33;;;23.50;;
26319;SDS011;14024;52.226;5.200;2023-06-19T09:47:59;33.78;;;22.48;;
26319;SDS011;14024;52.226;5.200;2023-06-19T09:50:26;38.75;;;24.00;;
26319;SDS011;14024;52.226;5.200;2023-06-19T09:52:54;33.05;;;22.27;;
26319;SDS011;14024;52.226;5.200;2023-06-19T09:55:20;35.20;;;22.27;;
26319;SDS011;14024;52.226;5.200;2023-06-19T09:57:49;32.60;;;21.05;;
26319;SDS011;14024;52.226;5.200;2023-06-19T10:00:15;34.22;;;22.77;;
26319;SDS011;14024;52.226;5.200;2023-06-19T10:02:47;34.00;;;23.13;;
26319;SDS011;14024;52.226;5.200;2023-06-19T10:05:14;34.30;;;22.58;;
26319;SDS011;14024;52.226;5.200;2023-06-19T10:07:45;33.58;;;21.98;;
26319;SDS011;14024;52.226;5.200;2023-06-19T10:10:23;33.85;;;22.35;;
26319;SDS011;14024;52.226;5.200;2023-06-19T10:12:49;36.67;;;22.25;;
26319;SDS011;14024;52.226;5.200;2023-06-19T10:17:46;31.00;;;20.10;;
26319;SDS011;14024;52.226;5.200;2023-06-19T10:22:51;26.92;;;18.42;;
26319;SDS011;14024;52.226;5.200;2023-06-19T10:25:21;26.90;;;19.75;;
26319;SDS011;14024;52.226;5.200;2023-06-19T10:27:47;29.55;;;20.13;;
26319;SDS011;14024;52.226;5.200;2023-06-19T10:30:17;26.80;;;19.77;;
26319;SDS011;14024;52.226;5.200;2023-06-19T10:32:44;30.23;;;20.98;;
26319;SDS011;14024;52.226;5.200;2023-06-19T10:35:11;37.00;;;23.48;;
26319;SDS011;14024;52.226;5.200;2023-06-19T10:37:37;32.15;;;23.88;;
26319;SDS011;14024;52.226;5.200;2023-06-19T10:40:04;37.55;;;23.17;;
26319;SDS011;14024;52.226;5.200;2023-06-19T10:42:37;33.35;;;23.15;;
26319;SDS011;14024;52.226;5.200;2023-06-19T10:45:04;33.25;;;23.70;;
26319;SDS011;14024;52.226;5.200;2023-06-19T10:47:32;34.38;;;22.42;;
26319;SDS011;14024;52.226;5.200;2023-06-19T10:49:58;33.33;;;20.92;;
26319;SDS011;14024;52.226;5.200;2023-06-19T10:52:24;28.25;;;20.25;;
26319;SDS011;14024;52.226;5.200;2023-06-19T10:54:53;31.63;;;22.00;;
26319;SDS011;14024;52.226;5.200;2023-06-19T10:57:29;27.75;;;20.65;;
26319;SDS011;14024;52.226;5.200;2023-06-19T10:59:56;30.20;;;21.67;;
26319;SDS011;14024;52.226;5.200;2023-06-19T11:02:23;27.98;;;21.38;;
26319;SDS011;14024;52.226;5.200;2023-06-19T11:04:51;31.95;;;23.38;;
26319;SDS011;14024;52.226;5.200;2023-06-19T11:07:18;34.13;;;23.92;;
26319;SDS011;14024;52.226;5.200;2023-06-19T11:09:44;34.92;;;22.48;;
26319;SDS011;14024;52.226;5.200;2023-06-19T11:12:10;29.30;;;18.80;;
26319;SDS011;14024;52.226;5.200;2023-06-19T11:14:37;29.90;;;20.77;;
26319;SDS011;14024;52.226;5.200;2023-06-19T11:17:05;33.45;;;22.65;;
26319;SDS011;14024;52.226;5.200;2023-06-19T11:19:34;23.55;;;18.40;;
26319;SDS011;14024;52.226;5.200;2023-06-19T11:22:07;26.58;;;19.40;;
26319;SDS011;14024;52.226;5.200;2023-06-19T11:24:33;24.75;;;18.90;;
26319;SDS011;14024;52.226;5.200;2023-06-19T11:26:59;33.42;;;20.40;;
26319;SDS011;14024;52.226;5.200;2023-06-19T11:29:26;22.60;;;16.60;;
26319;SDS011;14024;52.226;5.200;2023-06-19T11:32:14;25.52;;;17.88;;
26319;SDS011;14024;52.226;5.200;2023-06-19T11:34:39;30.13;;;20.23;;
26319;SDS011;14024;52.226;5.200;2023-06-19T11:37:12;25.85;;;18.10;;
26319;SDS011;14024;52.226;5.200;2023-06-19T11:42:05;27.30;;;17.77;;
26319;SDS011;14024;52.226;5.200;2023-06-19T11:45:02;22.83;;;16.20;;
26319;SDS011;14024;52.226;5.200;2023-06-19T11:47:30;26.45;;;17.85;;
26319;SDS011;14024;52.226;5.200;2023-06-19T11:49:57;21.00;;;15.57;;
26319;SDS011;14024;52.226;5.200;2023-06-19T11:52:23;21.00;;;15.65;;
26319;SDS011;14024;52.226;5.200;2023-06-19T11:54:49;21.08;;;14.00;;
26319;SDS011;14024;52.226;5.200;2023-06-19T11:57:18;20.25;;;13.88;;
26319;SDS011;14024;52.226;5.200;2023-06-19T12:00:14;16.83;;;12.35;;
26319;SDS011;14024;52.226;5.200;2023-06-19T12:02:43;17.20;;;12.68;;
26319;SDS011;14024;52.226;5.200;2023-06-19T12:05:11;22.85;;;15.38;;
26319;SDS011;14024;52.226;5.200;2023-06-19T12:08:01;20.38;;;15.13;;
26319;SDS011;14024;52.226;5.200;2023-06-19T12:10:28;25.33;;;16.33;;
26319;SDS011;14024;52.226;5.200;2023-06-19T12:13:02;24.87;;;18.23;;
26319;SDS011;14024;52.226;5.200;2023-06-19T12:15:30;23.25;;;16.08;;
26319;SDS011;14024;52.226;5.200;2023-06-19T12:17:56;20.90;;;14.38;;
26319;SDS011;14024;52.226;5.200;2023-06-19T12:20:25;22.13;;;15.05;;
26319;SDS011;14024;52.226;5.200;2023-06-19T12:22:54;28.15;;;18.38;;
26319;SDS011;14024;52.226;5.200;2023-06-19T12:25:27;22.65;;;17.55;;
26319;SDS011;14024;52.226;5.200;2023-06-19T12:27:53;19.60;;;15.52;;
26319;SDS011;14024;52.226;5.200;2023-06-19T12:30:19;16.15;;;11.60;;
26319;SDS011;14024;52.226;5.200;2023-06-19T12:32:45;18.83;;;13.10;;
26319;SDS011;14024;52.226;5.200;2023-06-19T12:35:14;23.05;;;12.80;;
26319;SDS011;14024;52.226;5.200;2023-06-19T12:37:40;17.90;;;12.13;;
26319;SDS011;14024;52.226;5.200;2023-06-19T12:40:16;18.88;;;12.43;;
26319;SDS011;14024;52.226;5.200;2023-06-19T12:42:42;17.88;;;13.20;;
26319;SDS011;14024;52.226;5.200;2023-06-19T12:45:08;22.20;;;14.13;;
26319;SDS011;14024;52.226;5.200;2023-06-19T12:47:35;16.92;;;13.18;;
26319;SDS011;14024;52.226;5.200;2023-06-19T12:50:04;15.40;;;9.55;;
26319;SDS011;14024;52.226;5.200;2023-06-19T12:52:30;17.80;;;10.50;;
26319;SDS011;14024;52.226;5.200;2023-06-19T12:54:56;13.52;;;9.20;;
26319;SDS011;14024;52.226;5.200;2023-06-19T12:57:27;12.30;;;8.88;;
26319;SDS011;14024;52.226;5.200;2023-06-19T12:59:53;15.75;;;9.27;;
26319;SDS011;14024;52.226;5.200;2023-06-19T13:02:20;16.20;;;10.95;;
26319;SDS011;14024;52.226;5.200;2023-06-19T13:04:49;16.20;;;9.88;;
26319;SDS011;14024;52.226;5.200;2023-06-19T13:07:17;14.82;;;10.38;;
26319;SDS011;14024;52.226;5.200;2023-06-19T13:09:44;14.65;;;11.23;;
26319;SDS011;14024;52.226;5.200;2023-06-19T13:12:10;17.02;;;11.90;;
26319;SDS011;14024;52.226;5.200;2023-06-19T13:14:36;20.98;;;13.40;;
26319;SDS011;14024;52.226;5.200;2023-06-19T13:17:03;20.20;;;13.43;;
26319;SDS011;14024;52.226;5.200;2023-06-19T13:19:29;19.15;;;13.48;;
26319;SDS011;14024;52.226;5.200;2023-06-19T13:21:55;23.00;;;14.32;;
26319;SDS011;14024;52.226;5.200;2023-06-19T13:24:21;18.38;;;13.77;;
26319;SDS011;14024;52.226;5.200;2023-06-19T13:26:47;20.38;;;12.52;;
26319;SDS011;14024;52.226;5.200;2023-06-19T13:29:14;22.75;;;17.05;;
26319;SDS011;14024;52.226;5.200;2023-06-19T13:31:40;19.52;;;15.02;;
26319;SDS011;14024;52.226;5.200;2023-06-19T13:34:06;17.60;;;13.32;;
26319;SDS011;14024;52.226;5.200;2023-06-19T13:36:35;21.65;;;15.95;;
26319;SDS011;14024;52.226;5.200;2023-06-19T13:39:01;25.48;;;15.27;;
26319;SDS011;14024;52.226;5.200;2023-06-19T13:41:29;21.50;;;13.85;;
26319;SDS011;14024;52.226;5.200;2023-06-19T13:44:06;22.33;;;12.98;;
26319;SDS011;14024;52.226;5.200;2023-06-19T13:46:32;15.20;;;11.00;;
26319;SDS011;14024;52.226;5.200;2023-06-19T13:48:58;14.77;;;10.70;;
26319;SDS011;14024;52.226;5.200;2023-06-19T13:51:25;11.57;;;8.70;;
26319;SDS011;14024;52.226;5.200;2023-06-19T13:53:51;12.25;;;9.05;;
26319;SDS011;14024;52.226;5.200;2023-06-19T13:56:20;15.82;;;8.77;;
26319;SDS011;14024;52.226;5.200;2023-06-19T13:58:48;12.45;;;8.15;;
26319;SDS011;14024;52.226;5.200;2023-06-19T14:01:14;15.52;;;8.45;;
26319;SDS011;14024;52.226;5.200;2023-06-19T14:03:42;11.00;;;7.85;;
26319;SDS011;14024;52.226;5.200;2023-06-19T14:06:09;15.35;;;8.65;;
26319;SDS011;14024;52.226;5.200;2023-06-19T14:08:35;11.90;;;7.43;;
26319;SDS011;14024;52.226;5.200;2023-06-19T14:11:01;13.85;;;9.43;;
26319;SDS011;14024;52.226;5.200;2023-06-19T14:13:29;12.23;;;8.65;;
26319;SDS011;14024;52.226;5.200;2023-06-19T14:15:55;12.48;;;9.45;;
26319;SDS011;14024;52.226;5.200;2023-06-19T14:18:21;11.65;;;8.52;;
26319;SDS011;14024;52.226;5.200;2023-06-19T14:20:47;16.17;;;11.25;;
26319;SDS011;14024;52.226;5.200;2023-06-19T14:23:13;16.52;;;11.65;;
26319;SDS011;14024;52.226;5.200;2023-06-19T14:25:40;14.38;;;10.45;;
26319;SDS011;14024;52.226;5.200;2023-06-19T14:28:07;18.17;;;12.52;;
26319;SDS011;14024;52.226;5.200;2023-06-19T14:30:33;15.65;;;10.88;;
26319;SDS011;14024;52.226;5.200;2023-06-19T14:32:59;16.25;;;11.43;;
26319;SDS011;14024;52.226;5.200;2023-06-19T14:35:25;16.10;;;12.30;;
26319;SDS011;14024;52.226;5.200;2023-06-19T14:37:51;18.02;;;12.07;;